Time;durP1;ratioP1;P1;durP2;ratioP2;P2;SDS_P1;SDS_P2;PMS_P1;PMS_P2;Temp;Humidity;BMP_temperature;BMP_pressure;BME280_temperature;BME280_humidity;BME280_pressure;Samples;Min_cycle;Max_cycle;Signal;HPM_P1;HPM_P2
2022/02/08 00:00:59;;;;;;;11.23;2.85;;;;;;;;;;5031494;28;20029;-68
2022/02/08 00:03:24;;;;;;;13.73;3.60;;;;;;;;;;5033634;28;20022;-70
2022/02/08 00:06:13;;;;;;;17.50;2.90;;;;;;;;;;5034764;28;20036;-70
2022/02/08 00:08:36;;;;;;;14.20;3.47;;;;;;;;;;5034451;28;20045;-70
2022/02/08 00:11:03;;;;;;;13.63;3.65;;;;;;;;;;5034453;28;20021;-70
2022/02/08 00:13:29;;;;;;;16.35;3.60;;;;;;;;;;5032426;28;20121;-70
2022/02/08 00:15:55;;;;;;;14.10;3.50;;;;;;;;;;5034359;28;20121;-70
2022/02/08 00:18:20;;;;;;;14.70;3.88;;;;;;;;;;5034165;28;20029;-70
2022/02/08 00:20:46;;;;;;;17.42;3.72;;;;;;;;;;5034731;28;20039;-72
2022/02/08 00:23:12;;;;;;;13.65;4.38;;;;;;;;;;5032832;28;20379;-72
2022/02/08 00:25:38;;;;;;;13.43;3.42;;;;;;;;;;5034245;28;20032;-69
2022/02/08 00:28:05;;;;;;;19.05;3.55;;;;;;;;;;5034056;28;20471;-69
2022/02/08 00:30:31;;;;;;;8.57;2.67;;;;;;;;;;5034575;28;20277;-70
2022/02/08 00:32:57;;;;;;;18.95;4.15;;;;;;;;;;5035829;28;20048;-70
2022/02/08 00:35:23;;;;;;;14.32;2.83;;;;;;;;;;5036564;28;20065;-71
2022/02/08 00:37:49;;;;;;;13.40;3.72;;;;;;;;;;5036256;28;20028;-69
2022/02/08 00:40:15;;;;;;;19.80;4.75;;;;;;;;;;5035957;28;20048;-71
2022/02/08 00:42:41;;;;;;;10.38;3.55;;;;;;;;;;5035877;28;20033;-70
2022/02/08 00:47:49;;;;;;;18.83;3.75;;;;;;;;;;5034421;28;20450;-70
2022/02/08 00:50:15;;;;;;;16.45;4.22;;;;;;;;;;5034625;28;20051;-69
2022/02/08 00:52:41;;;;;;;16.60;4.13;;;;;;;;;;5033823;28;20056;-69
2022/02/08 00:55:09;;;;;;;18.17;4.55;;;;;;;;;;5033467;28;20029;-68
2022/02/08 00:57:35;;;;;;;12.40;3.50;;;;;;;;;;5033887;28;20053;-71
2022/02/08 01:00:02;;;;;;;21.02;4.82;;;;;;;;;;5035353;28;20022;-71
2022/02/08 01:02:28;;;;;;;16.65;4.63;;;;;;;;;;5036787;28;20030;-72
2022/02/08 01:04:58;;;;;;;18.67;5.45;;;;;;;;;;5035038;28;20037;-72
2022/02/08 01:07:26;;;;;;;17.63;5.07;;;;;;;;;;5034562;28;20032;-70
2022/02/08 01:09:56;;;;;;;14.18;4.22;;;;;;;;;;5034872;28;20088;-70
2022/02/08 01:12:23;;;;;;;12.52;4.15;;;;;;;;;;5032755;28;20018;-69
2022/02/08 01:14:51;;;;;;;19.05;5.00;;;;;;;;;;5032177;28;20026;-69
2022/02/08 01:17:17;;;;;;;17.02;5.18;;;;;;;;;;5032938;28;20033;-69
2022/02/08 01:19:52;;;;;;;8.20;3.97;;;;;;;;;;5032954;28;20021;-69
2022/02/08 01:22:18;;;;;;;12.85;4.50;;;;;;;;;;5032879;28;20029;-69
2022/02/08 01:24:45;;;;;;;18.23;4.82;;;;;;;;;;5032323;28;20032;-69
2022/02/08 01:27:12;;;;;;;17.00;6.22;;;;;;;;;;5052725;22;20088;-72
2022/02/08 01:40:25;;;;;;;;;;;;;;;;;;;;;
2022/02/08 01:45:35;;;;;;;14.00;4.43;;;;;;;;;;5011289;28;20038;-71
2022/02/08 01:48:06;;;;;;;16.90;4.80;;;;;;;;;;5012909;28;20092;-70
2022/02/08 01:50:33;;;;;;;15.30;4.15;;;;;;;;;;5012890;28;20026;-71
2022/02/08 01:52:59;;;;;;;17.55;5.18;;;;;;;;;;5012229;28;20037;-69
2022/02/08 01:55:25;;;;;;;14.70;4.35;;;;;;;;;;5011372;28;20399;-70
2022/02/08 01:57:51;;;;;;;16.30;4.78;;;;;;;;;;5012742;28;20022;-71
2022/02/08 02:00:19;;;;;;;17.73;4.43;;;;;;;;;;5011259;28;20024;-71
2022/02/08 02:02:45;;;;;;;18.65;5.07;;;;;;;;;;5012044;28;20400;-70
2022/02/08 02:05:11;;;;;;;16.30;4.47;;;;;;;;;;5012392;28;20030;-71
2022/02/08 02:07:46;;;;;;;13.93;5.40;;;;;;;;;;5012407;28;20108;-71
2022/02/08 02:10:13;;;;;;;11.73;4.43;;;;;;;;;;5012654;28;20022;-71
2022/02/08 02:12:49;;;;;;;16.50;4.78;;;;;;;;;;5012130;28;20033;-71
2022/02/08 02:15:15;;;;;;;17.67;4.97;;;;;;;;;;5012621;28;20056;-72
2022/02/08 02:17:41;;;;;;;14.40;4.90;;;;;;;;;;5012450;28;20101;-72
2022/02/08 02:20:07;;;;;;;11.93;4.32;;;;;;;;;;5012243;28;20037;-71
2022/02/08 02:22:33;;;;;;;13.95;4.70;;;;;;;;;;5012367;28;20076;-71
2022/02/08 02:24:59;;;;;;;13.23;5.15;;;;;;;;;;5010865;28;20208;-71
2022/02/08 02:27:25;;;;;;;12.07;4.75;;;;;;;;;;5012078;28;20492;-71
2022/02/08 02:29:51;;;;;;;13.38;4.88;;;;;;;;;;5012314;28;20400;-71
2022/02/08 02:32:17;;;;;;;12.27;4.45;;;;;;;;;;5012272;28;20026;-71
2022/02/08 02:34:47;;;;;;;20.52;5.00;;;;;;;;;;5011399;28;20072;-71
2022/02/08 02:37:13;;;;;;;13.07;4.68;;;;;;;;;;5011882;28;20022;-71
2022/02/08 02:39:39;;;;;;;14.88;5.05;;;;;;;;;;5012017;28;20399;-71
2022/02/08 02:42:11;;;;;;;12.95;5.45;;;;;;;;;;5010834;28;20022;-72
2022/02/08 02:44:37;;;;;;;11.85;5.38;;;;;;;;;;5011503;28;20018;-71
2022/02/08 02:47:03;;;;;;;17.27;5.70;;;;;;;;;;5012056;28;20048;-72
2022/02/08 02:49:29;;;;;;;18.02;5.75;;;;;;;;;;5012049;28;20022;-72
2022/02/08 02:51:55;;;;;;;12.20;4.80;;;;;;;;;;5012143;28;20022;-71
2022/02/08 02:54:21;;;;;;;14.13;5.13;;;;;;;;;;5011086;28;20037;-71
2022/02/08 02:56:47;;;;;;;18.33;5.57;;;;;;;;;;5010928;28;20018;-71
2022/02/08 02:59:14;;;;;;;14.27;5.47;;;;;;;;;;5012068;28;20024;-71
2022/02/08 03:02:09;;;;;;;19.45;5.70;;;;;;;;;;5012091;28;20036;-71
2022/02/08 03:05:00;;;;;;;12.25;5.18;;;;;;;;;;5011445;28;20081;-72
2022/02/08 03:18:35;;;;;;;20.45;5.20;;;;;;;;;;5011503;28;20084;-71
2022/02/08 03:21:03;;;;;;;12.65;4.70;;;;;;;;;;5011699;28;20018;-71
2022/02/08 03:23:29;;;;;;;17.17;5.65;;;;;;;;;;5011010;28;20098;-70
2022/02/08 03:25:55;;;;;;;16.58;5.65;;;;;;;;;;5010750;28;20034;-70
2022/02/08 03:28:21;;;;;;;11.45;5.15;;;;;;;;;;5011713;28;20038;-71
2022/02/08 03:30:50;;;;;;;14.15;4.78;;;;;;;;;;5011663;28;20036;-71
2022/02/08 03:33:17;;;;;;;12.32;4.95;;;;;;;;;;5010652;28;20491;-72
2022/02/08 03:35:44;;;;;;;14.60;4.93;;;;;;;;;;5012082;28;20022;-72
2022/02/08 03:38:11;;;;;;;13.85;5.32;;;;;;;;;;5015062;28;20030;-72
2022/02/08 03:43:17;;;;;;;16.20;5.43;;;;;;;;;;5013417;28;20034;-71
2022/02/08 03:45:46;;;;;;;11.60;5.20;;;;;;;;;;5015167;28;20550;-72
2022/02/08 03:48:15;;;;;;;16.45;4.97;;;;;;;;;;5015007;28;20037;-71
2022/02/08 03:50:44;;;;;;;15.75;5.88;;;;;;;;;;5015048;28;20029;-72
2022/02/08 03:53:10;;;;;;;15.00;5.10;;;;;;;;;;5014319;28;20076;-71
2022/02/08 03:55:36;;;;;;;16.13;5.35;;;;;;;;;;5015020;28;20180;-71
2022/02/08 03:58:02;;;;;;;13.95;5.22;;;;;;;;;;5013828;28;20503;-71
2022/02/08 04:00:33;;;;;;;16.35;5.32;;;;;;;;;;5014961;28;20057;-71
2022/02/08 04:02:59;;;;;;;17.67;5.60;;;;;;;;;;5012904;28;20395;-72
2022/02/08 04:05:33;;;;;;;12.20;5.03;;;;;;;;;;5014540;28;20492;-71
2022/02/08 04:08:04;;;;;;;17.90;4.95;;;;;;;;;;5014666;28;20026;-71
2022/02/08 04:10:31;;;;;;;17.02;5.97;;;;;;;;;;5014702;28;20033;-71
2022/02/08 04:18:12;;;;;;;9.70;4.53;;;;;;;;;;5014552;28;20022;-71
2022/02/08 04:45:12;;;;;;;12.05;4.63;;;;;;;;;;4994519;28;20484;-72
2022/02/08 04:48:02;;;;;;;13.65;4.90;;;;;;;;;;4993799;28;20037;-72
2022/02/08 04:50:30;;;;;;;12.73;5.65;;;;;;;;;;4993062;28;20030;-72
2022/02/08 04:53:03;;;;;;;13.68;5.18;;;;;;;;;;4993622;28;20131;-72
2022/02/08 05:42:20;;;;;;;12.23;4.32;;;;;;;;;;4993412;28;20514;-72
2022/02/08 05:44:54;;;;;;;10.48;5.22;;;;;;;;;;4992815;28;20026;-72
2022/02/08 05:47:20;;;;;;;15.88;4.95;;;;;;;;;;4992699;28;20027;-72
2022/02/08 05:54:57;;;;;;;11.60;4.40;;;;;;;;;;4992429;28;20031;-71
2022/02/08 05:57:23;;;;;;;13.32;4.60;;;;;;;;;;4992849;28;20510;-71
2022/02/08 05:59:51;;;;;;;8.45;3.78;;;;;;;;;;4991599;28;20022;-71
2022/02/08 06:02:19;;;;;;;12.70;4.40;;;;;;;;;;4992995;28;20030;-71
2022/02/08 06:04:45;;;;;;;10.45;4.63;;;;;;;;;;4992259;28;20018;-72
2022/02/08 06:07:16;;;;;;;17.35;3.70;;;;;;;;;;4991422;28;20027;-72
2022/02/08 06:09:42;;;;;;;;;;;;;;;;;;4993204;28;20030;-72
2022/02/08 06:12:08;;;;;;;9.35;3.20;;;;;;;;;;4992108;28;19917;-72
2022/02/08 06:14:36;;;;;;;11.88;3.35;;;;;;;;;;4990575;28;20026;-72
2022/02/08 06:17:02;;;;;;;15.77;3.60;;;;;;;;;;4993475;28;20491;-72
2022/02/08 06:19:28;;;;;;;9.18;3.17;;;;;;;;;;5006841;28;20026;-71
2022/02/08 06:21:54;;;;;;;9.27;3.17;;;;;;;;;;4999585;28;20447;-71
2022/02/08 06:24:20;;;;;;;13.02;3.45;;;;;;;;;;5010572;28;20036;-71
2022/02/08 06:26:46;;;;;;;12.40;3.70;;;;;;;;;;5009752;28;20503;-71
2022/02/08 06:29:15;;;;;;;13.55;3.28;;;;;;;;;;5008805;28;20044;-72
2022/02/08 06:31:41;;;;;;;15.32;4.00;;;;;;;;;;5009311;28;20027;-72
2022/02/08 06:34:07;;;;;;;9.70;3.40;;;;;;;;;;5010870;28;20476;-72
2022/02/08 06:36:34;;;;;;;8.18;3.05;;;;;;;;;;5011681;28;20480;-72
2022/02/08 06:39:00;;;;;;;11.35;3.47;;;;;;;;;;5009962;28;20026;-72
2022/02/08 06:41:26;;;;;;;17.17;4.22;;;;;;;;;;5011602;28;20032;-73
2022/02/08 06:43:52;;;;;;;7.35;2.70;;;;;;;;;;5011105;28;20022;-72
2022/02/08 06:46:18;;;;;;;9.02;2.67;;;;;;;;;;5010697;28;20411;-72
2022/02/08 06:48:44;;;;;;;10.80;2.83;;;;;;;;;;5011714;28;20040;-72
2022/02/08 06:51:10;;;;;;;10.32;2.85;;;;;;;;;;5011595;28;20104;-72
2022/02/08 06:53:36;;;;;;;9.88;2.35;;;;;;;;;;5009804;28;20068;-72
2022/02/08 06:56:03;;;;;;;11.35;2.63;;;;;;;;;;5011618;28;20431;-72
2022/02/08 06:58:36;;;;;;;8.05;2.38;;;;;;;;;;5012293;28;20033;-73
2022/02/08 07:01:04;;;;;;;11.80;2.20;;;;;;;;;;5011899;28;20484;-72
2022/02/08 07:03:30;;;;;;;8.50;2.80;;;;;;;;;;5011127;28;20038;-73
2022/02/08 07:05:56;;;;;;;8.95;2.95;;;;;;;;;;5011597;28;20165;-73
2022/02/08 07:08:24;;;;;;;9.30;2.22;;;;;;;;;;5010183;28;20121;-73
2022/02/08 07:10:50;;;;;;;8.20;2.83;;;;;;;;;;5011297;28;20328;-71
2022/02/08 07:13:16;;;;;;;8.77;1.98;;;;;;;;;;5013496;28;20507;-71
2022/02/08 07:15:42;;;;;;;7.15;2.17;;;;;;;;;;5014128;28;20038;-72
2022/02/08 07:18:08;;;;;;;9.05;2.78;;;;;;;;;;5014256;28;20029;-71
2022/02/08 07:20:34;;;;;;;4.40;1.60;;;;;;;;;;5015601;28;20476;-72
2022/02/08 07:23:00;;;;;;;9.20;2.58;;;;;;;;;;5014731;28;20579;-73
2022/02/08 07:25:26;;;;;;;8.90;3.05;;;;;;;;;;5015526;28;20093;-72
2022/02/08 07:27:52;;;;;;;6.40;2.15;;;;;;;;;;5038037;23;20057;-70
2022/02/08 07:30:18;;;;;;;9.27;2.03;;;;;;;;;;5015349;28;20076;-67
2022/02/08 07:32:46;;;;;;;8.73;2.67;;;;;;;;;;5014603;28;20080;-71
2022/02/08 07:35:31;;;;;;;9.50;2.90;;;;;;;;;;5014634;28;20079;-67
2022/02/08 07:38:09;;;;;;;7.03;2.88;;;;;;;;;;5014898;28;20026;-68
2022/02/08 07:43:04;;;;;;;6.40;2.42;;;;;;;;;;5014225;28;20030;-67
2022/02/08 07:45:30;;;;;;;8.48;2.88;;;;;;;;;;5014162;28;20054;-70
2022/02/08 07:47:56;;;;;;;9.70;2.88;;;;;;;;;;5012494;28;20064;-70
2022/02/08 07:50:24;;;;;;;12.95;3.25;;;;;;;;;;5014039;28;20095;-70
2022/02/08 07:52:51;;;;;;;7.75;2.70;;;;;;;;;;5014012;28;20032;-71
2022/02/08 07:55:17;;;;;;;7.72;3.72;;;;;;;;;;5014697;28;20022;-72
2022/02/08 07:57:43;;;;;;;8.18;3.33;;;;;;;;;;5014735;28;20472;-73
2022/02/08 08:00:10;;;;;;;180.15;84.20;;;;;;;;;;5013844;28;20377;-76
2022/02/08 08:02:36;;;;;;;25.48;11.45;;;;;;;;;;5014909;28;20018;-70
2022/02/08 08:05:03;;;;;;;152.88;61.85;;;;;;;;;;5014586;28;20476;-73
2022/02/08 08:07:29;;;;;;;46.78;20.17;;;;;;;;;;5014849;28;20033;-73
2022/02/08 08:09:55;;;;;;;52.47;20.65;;;;;;;;;;5014917;28;20056;-74
2022/02/08 08:12:22;;;;;;;65.40;29.20;;;;;;;;;;5014558;28;20519;-74
2022/02/08 08:14:51;;;;;;;28.52;12.18;;;;;;;;;;5013909;28;20041;-72
2022/02/08 08:17:51;;;;;;;13.20;4.18;;;;;;;;;;5014385;28;20547;-70
2022/02/08 08:20:06;;;;;;;30.88;13.25;;;;;;;;;;5014073;28;20061;-74
2022/02/08 08:22:32;;;;;;;155.63;65.78;;;;;;;;;;5013135;28;20401;-68
2022/02/08 08:24:59;;;;;;;47.95;19.50;;;;;;;;;;5013815;28;20484;-72
2022/02/08 08:27:25;;;;;;;22.50;8.80;;;;;;;;;;5014254;28;20045;-73
2022/02/08 08:29:51;;;;;;;49.13;21.35;;;;;;;;;;5014372;28;20042;-70
2022/02/08 08:32:17;;;;;;;45.45;17.35;;;;;;;;;;5014421;28;20114;-72
2022/02/08 08:34:43;;;;;;;17.27;7.13;;;;;;;;;;5013447;28;20105;-69
2022/02/08 08:37:09;;;;;;;19.05;7.50;;;;;;;;;;5013973;28;20076;-72
2022/02/08 08:39:47;;;;;;;69.53;28.63;;;;;;;;;;5012917;28;20022;-74
2022/02/08 08:42:55;;;;;;;18.95;6.63;;;;;;;;;;5014229;28;20026;-74
2022/02/08 08:53:23;;;;;;;38.80;15.82;;;;;;;;;;5013307;28;20408;-70
2022/02/08 08:55:49;;;;;;;18.63;8.05;;;;;;;;;;5013606;28;20026;-70
2022/02/08 08:58:16;;;;;;;56.95;24.95;;;;;;;;;;5013835;28;20476;-69
2022/02/08 09:00:43;;;;;;;29.05;12.77;;;;;;;;;;5013990;28;20053;-72
2022/02/08 09:03:09;;;;;;;24.58;10.27;;;;;;;;;;5012797;28;20038;-71
2022/02/08 09:05:35;;;;;;;19.27;9.70;;;;;;;;;;5012553;28;20480;-70
2022/02/08 09:08:01;;;;;;;27.55;12.77;;;;;;;;;;5012625;28;20034;-72
2022/02/08 09:10:36;;;;;;;31.95;14.02;;;;;;;;;;5013895;28;20036;-68
2022/02/08 09:13:26;;;;;;;28.23;12.98;;;;;;;;;;5013222;28;20030;-70
2022/02/08 09:24:32;;;;;;;133.80;65.80;;;;;;;;;;5012767;28;20029;-72
2022/02/08 09:29:48;;;;;;;47.22;22.88;;;;;;;;;;5013044;28;20041;-72
2022/02/08 09:34:41;;;;;;;27.25;12.65;;;;;;;;;;5012003;28;20030;-67
2022/02/08 09:37:11;;;;;;;19.02;8.30;;;;;;;;;;5013361;28;20097;-67
2022/02/08 09:39:38;;;;;;;13.38;5.63;;;;;;;;;;5012763;28;20017;-68
2022/02/08 09:42:06;;;;;;;26.02;11.18;;;;;;;;;;5012849;28;20104;-69
2022/02/08 09:44:33;;;;;;;17.65;6.45;;;;;;;;;;5012354;28;20123;-67
2022/02/08 09:47:01;;;;;;;19.48;7.88;;;;;;;;;;5013270;28;20026;-68
2022/02/08 09:49:28;;;;;;;11.48;5.32;;;;;;;;;;5010929;28;20022;-69
2022/02/08 09:51:55;;;;;;;20.08;8.85;;;;;;;;;;5013399;28;20399;-67
2022/02/08 09:54:22;;;;;;;12.18;4.60;;;;;;;;;;5012263;28;20029;-67
2022/02/08 09:56:48;;;;;;;11.15;4.60;;;;;;;;;;5012818;28;20064;-68
2022/02/08 09:59:14;;;;;;;5.63;3.05;;;;;;;;;;5012546;28;20026;-68
2022/02/08 10:01:50;;;;;;;9.85;3.45;;;;;;;;;;5012792;28;20108;-68
2022/02/08 10:04:17;;;;;;;12.88;5.60;;;;;;;;;;5011850;28;20080;-71
2022/02/08 10:06:43;;;;;;;10.10;4.13;;;;;;;;;;5012504;28;20028;-70
2022/02/08 10:09:09;;;;;;;9.80;2.42;;;;;;;;;;5012286;28;20030;-71
2022/02/08 10:14:22;;;;;;;11.15;4.10;;;;;;;;;;5011949;28;20554;-70
2022/02/08 10:22:37;;;;;;;37.53;15.27;;;;;;;;;;5012547;28;20033;-70
2022/02/08 10:25:05;;;;;;;19.60;7.53;;;;;;;;;;5012058;28;20022;-73
2022/02/08 10:27:35;;;;;;;12.75;4.88;;;;;;;;;;5012235;28;20033;-73
2022/02/08 10:38:06;;;;;;;20.75;7.45;;;;;;;;;;5012388;28;20037;-70
2022/02/08 10:40:36;;;;;;;23.85;9.32;;;;;;;;;;5011141;28;20403;-69
2022/02/08 10:43:07;;;;;;;20.30;6.95;;;;;;;;;;5011443;28;20025;-70
2022/02/08 10:45:33;;;;;;;;;;;;;;;;;;5010507;28;20048;-71
2022/02/08 10:48:01;;;;;;;23.13;8.13;;;;;;;;;;5009937;28;20003;-72
2022/02/08 10:50:29;;;;;;;16.55;6.57;;;;;;;;;;5011413;28;20021;-68
2022/02/08 10:52:56;;;;;;;23.00;9.20;;;;;;;;;;5010059;28;20034;-68
2022/02/08 10:55:44;;;;;;;19.92;7.55;;;;;;;;;;5009904;28;20477;-69
2022/02/08 11:01:17;;;;;;;13.73;5.80;;;;;;;;;;5012082;28;20030;-69
2022/02/08 11:03:34;;;;;;;14.30;6.50;;;;;;;;;;5008841;28;20048;-70
2022/02/08 11:06:09;;;;;;;13.07;5.22;;;;;;;;;;5011735;28;20104;-68
2022/02/08 11:14:15;;;;;;;11.43;3.90;;;;;;;;;;5011179;28;20029;-69
2022/02/08 11:22:41;;;;;;;10.60;4.65;;;;;;;;;;5011530;28;20076;-70
2022/02/08 11:25:19;;;;;;;16.80;7.38;;;;;;;;;;5010025;28;20026;-69
2022/02/08 11:27:50;;;;;;;15.00;5.95;;;;;;;;;;5011201;28;20081;-68
2022/02/08 11:30:26;;;;;;;9.77;4.95;;;;;;;;;;5011632;28;20026;-69
2022/02/08 11:49:29;;;;;;;14.75;5.60;;;;;;;;;;5010861;28;20026;-69
2022/02/08 11:52:22;;;;;;;12.45;4.65;;;;;;;;;;5011216;28;20033;-65
2022/02/08 12:00:44;;;;;;;9.98;5.22;;;;;;;;;;5015125;28;20113;-70
2022/02/08 12:02:53;;;;;;;19.35;8.07;;;;;;;;;;5007142;28;20444;-69
2022/02/08 12:07:55;;;;;;;16.08;6.28;;;;;;;;;;5014940;28;20030;-70
2022/02/08 12:10:41;;;;;;;29.42;11.98;;;;;;;;;;5014574;28;20018;-72
2022/02/08 12:13:29;;;;;;;12.45;5.00;;;;;;;;;;5012778;28;20029;-68
2022/02/08 12:33:10;;;;;;;7.82;3.55;;;;;;;;;;5013812;28;20185;-69
2022/02/08 12:57:32;;;;;;;4.85;2.20;;;;;;;;;;5013949;28;20054;-69
2022/02/08 13:02:43;;;;;;;9.23;4.32;;;;;;;;;;5013892;28;20388;-68
2022/02/08 13:05:51;;;;;;;17.27;6.80;;;;;;;;;;5012173;28;20074;-71
2022/02/08 13:19:52;;;;;;;16.13;7.40;;;;;;;;;;5013322;28;20072;-70
2022/02/08 14:05:58;;;;;;;9.27;4.60;;;;;;;;;;5028007;28;20097;-72
2022/02/08 14:16:46;;;;;;;5.93;3.03;;;;;;;;;;5022791;28;20041;-73
2022/02/08 14:19:17;;;;;;;10.60;5.43;;;;;;;;;;5019626;28;20022;-72
2022/02/08 14:21:55;;;;;;;8.93;4.05;;;;;;;;;;5022525;28;20040;-71
2022/02/08 14:24:35;;;;;;;11.65;5.38;;;;;;;;;;5020014;28;20025;-73
2022/02/08 14:29:51;;;;;;;5.13;2.72;;;;;;;;;;5001799;28;20077;-73
2022/02/08 14:32:24;;;;;;;8.63;4.13;;;;;;;;;;5003722;28;20036;-73
2022/02/08 15:09:57;;;;;;;12.80;6.32;;;;;;;;;;5012308;28;20097;-73
2022/02/08 15:12:27;;;;;;;7.82;3.95;;;;;;;;;;5019308;28;20022;-73
2022/02/08 15:15:00;;;;;;;10.60;3.83;;;;;;;;;;5021537;28;20018;-73
2022/02/08 15:17:26;;;;;;;10.23;4.72;;;;;;;;;;5026689;28;20464;-73
2022/02/08 15:19:53;;;;;;;9.07;3.67;;;;;;;;;;5025729;28;20049;-73
2022/02/08 15:22:20;;;;;;;13.63;4.93;;;;;;;;;;5024668;28;20022;-74
2022/02/08 15:24:46;;;;;;;11.45;4.80;;;;;;;;;;5024723;28;20026;-72
2022/02/08 15:27:13;;;;;;;10.85;4.75;;;;;;;;;;5022352;28;20352;-73
2022/02/08 15:29:40;;;;;;;6.22;3.03;;;;;;;;;;5020353;28;20042;-74
2022/02/08 15:32:12;;;;;;;8.73;3.55;;;;;;;;;;5025984;28;20064;-73
2022/02/08 15:34:38;;;;;;;13.60;4.95;;;;;;;;;;5029037;28;20026;-74
2022/02/08 15:37:04;;;;;;;10.70;4.07;;;;;;;;;;5030053;28;20026;-71
2022/02/08 15:39:31;;;;;;;11.52;4.85;;;;;;;;;;5026018;28;20022;-73
2022/02/08 15:41:57;;;;;;;10.15;3.92;;;;;;;;;;5031798;28;20022;-73
2022/02/08 15:44:25;;;;;;;7.88;3.10;;;;;;;;;;5028241;28;20076;-74
2022/02/08 15:46:52;;;;;;;8.40;3.92;;;;;;;;;;5024486;28;20022;-73
2022/02/08 15:49:18;;;;;;;6.05;2.88;;;;;;;;;;5021151;28;20097;-74
2022/02/08 15:51:55;;;;;;;7.13;3.22;;;;;;;;;;5017858;28;20541;-73
2022/02/08 15:54:35;;;;;;;7.00;3.13;;;;;;;;;;5018066;28;20065;-73
2022/02/08 16:11:01;;;;;;;5.38;2.50;;;;;;;;;;5016058;28;20056;-72
2022/02/08 16:13:41;;;;;;;8.15;2.63;;;;;;;;;;5016285;28;20113;-72
2022/02/08 16:16:20;;;;;;;8.80;3.95;;;;;;;;;;5015945;28;20487;-73
2022/02/08 16:24:04;;;;;;;6.32;3.00;;;;;;;;;;5014463;28;20037;-71
2022/02/08 16:26:43;;;;;;;10.98;3.67;;;;;;;;;;5014592;28;20061;-72
2022/02/08 16:53:02;;;;;;;5.88;2.45;;;;;;;;;;5014764;28;20109;-71
2022/02/08 17:00:32;;;;;;;5.07;2.70;;;;;;;;;;5014853;28;20041;-72
2022/02/08 17:03:04;;;;;;;6.22;2.55;;;;;;;;;;5013575;28;20435;-72
2022/02/08 17:05:30;;;;;;;6.82;3.08;;;;;;;;;;5013973;28;20029;-72
2022/02/08 17:07:57;;;;;;;5.72;3.08;;;;;;;;;;5013825;28;20033;-72
2022/02/08 17:10:39;;;;;;;7.70;3.08;;;;;;;;;;5014337;28;20018;-73
2022/02/08 17:13:34;;;;;;;5.70;3.00;;;;;;;;;;5013052;28;20076;-72
2022/02/08 17:48:22;;;;;;;7.97;3.90;;;;;;;;;;4994061;28;20046;-72
2022/02/08 17:50:48;;;;;;;7.28;4.07;;;;;;;;;;4992358;28;20057;-74
2022/02/08 17:53:15;;;;;;;8.77;3.80;;;;;;;;;;5009936;28;20030;-72
2022/02/08 17:55:41;;;;;;;5.32;3.58;;;;;;;;;;5012869;28;20120;-72
2022/02/08 17:58:09;;;;;;;6.15;4.45;;;;;;;;;;5012624;28;20045;-74
2022/02/08 18:00:35;;;;;;;5.30;3.55;;;;;;;;;;5013519;28;20017;-73
2022/02/08 18:03:05;;;;;;;5.00;3.78;;;;;;;;;;5013080;28;20021;-73
2022/02/08 18:05:31;;;;;;;5.63;3.85;;;;;;;;;;5014055;28;20040;-73
2022/02/08 18:07:57;;;;;;;6.95;3.40;;;;;;;;;;5013629;28;20026;-74
2022/02/08 18:10:25;;;;;;;7.07;4.43;;;;;;;;;;5014213;28;20404;-74
2022/02/08 18:12:54;;;;;;;7.40;3.63;;;;;;;;;;5013195;28;20022;-75
2022/02/08 18:15:22;;;;;;;10.52;4.72;;;;;;;;;;5013948;28;20018;-76
2022/02/08 18:17:52;;;;;;;6.97;3.80;;;;;;;;;;5014073;28;20029;-75
2022/02/08 19:09:24;;;;;;;18.67;9.40;;;;;;;;;;5004656;28;20038;-76
2022/02/08 19:17:12;;;;;;;17.48;7.85;;;;;;;;;;5015851;28;20040;-75
2022/02/08 19:20:02;;;;;;;30.13;14.02;;;;;;;;;;5014232;28;20014;-73
2022/02/08 19:22:28;;;;;;;11.00;6.40;;;;;;;;;;5015574;28;20038;-74
2022/02/08 19:24:54;;;;;;;17.95;9.52;;;;;;;;;;5015262;28;20026;-74
2022/02/08 19:27:20;;;;;;;11.65;4.65;;;;;;;;;;5015522;28;20022;-74
2022/02/08 19:29:47;;;;;;;21.08;11.00;;;;;;;;;;5063395;23;20053;-72
2022/02/08 19:32:13;;;;;;;14.98;7.07;;;;;;;;;;5056144;28;20395;-72
2022/02/08 19:34:41;;;;;;;15.52;8.00;;;;;;;;;;5053465;28;20028;-71
2022/02/08 19:37:08;;;;;;;22.75;11.57;;;;;;;;;;5054498;28;20029;-71
2022/02/08 19:39:35;;;;;;;11.48;6.32;;;;;;;;;;5043511;28;20026;-70
2022/02/08 19:42:01;;;;;;;17.75;8.75;;;;;;;;;;5035011;28;20113;-72
2022/02/08 19:44:28;;;;;;;9.43;4.55;;;;;;;;;;5034664;28;20486;-71
2022/02/08 19:46:57;;;;;;;10.15;5.63;;;;;;;;;;5033989;28;20030;-71
2022/02/08 19:49:23;;;;;;;10.43;6.32;;;;;;;;;;5033611;28;20643;-68
2022/02/08 19:51:49;;;;;;;12.18;6.28;;;;;;;;;;5034893;28;20030;-68
2022/02/08 19:54:20;;;;;;;19.67;9.82;;;;;;;;;;5034108;28;20030;-71
2022/02/08 19:56:53;;;;;;;12.98;6.60;;;;;;;;;;5034608;28;20033;-71
2022/02/08 19:59:31;;;;;;;16.08;8.77;;;;;;;;;;5034626;28;20032;-71
2022/02/08 20:01:58;;;;;;;24.42;11.30;;;;;;;;;;5034715;28;20021;-74
2022/02/08 20:04:24;;;;;;;13.77;7.85;;;;;;;;;;5033867;28;20068;-70
2022/02/08 20:06:52;;;;;;;17.45;9.73;;;;;;;;;;5034560;28;20045;-72
2022/02/08 20:09:18;;;;;;;16.38;9.57;;;;;;;;;;5034261;28;20480;-72
2022/02/08 20:11:45;;;;;;;19.90;11.25;;;;;;;;;;5034310;28;20476;-72
2022/02/08 20:14:12;;;;;;;16.02;9.05;;;;;;;;;;5033581;28;20032;-70
2022/02/08 20:16:39;;;;;;;21.38;11.60;;;;;;;;;;5032152;28;20021;-71
2022/02/08 20:19:07;;;;;;;18.90;9.40;;;;;;;;;;5033685;28;20021;-71
2022/02/08 20:21:35;;;;;;;21.50;11.98;;;;;;;;;;5033303;28;20447;-72
2022/02/08 20:24:03;;;;;;;15.13;6.75;;;;;;;;;;5031776;28;20128;-68
2022/02/08 20:26:46;;;;;;;14.32;7.70;;;;;;;;;;5033970;28;20026;-69
2022/02/08 20:29:21;;;;;;;10.77;5.30;;;;;;;;;;5033962;28;20056;-69
2022/02/08 20:31:48;;;;;;;13.60;7.45;;;;;;;;;;5031444;28;20021;-72
2022/02/08 20:34:16;;;;;;;14.88;8.65;;;;;;;;;;5032349;28;20025;-67
2022/02/08 20:36:42;;;;;;;28.50;13.25;;;;;;;;;;5033194;28;20025;-69
2022/02/08 20:39:09;;;;;;;15.50;8.05;;;;;;;;;;5032237;28;20022;-70
2022/02/08 20:41:35;;;;;;;12.82;6.65;;;;;;;;;;5032768;28;20021;-70
2022/02/08 20:44:02;;;;;;;20.98;10.98;;;;;;;;;;5030192;28;20159;-70
2022/02/08 20:46:29;;;;;;;8.45;5.20;;;;;;;;;;5032626;28;20032;-69
2022/02/08 20:48:55;;;;;;;10.23;4.85;;;;;;;;;;5032579;28;20018;-69
2022/02/08 20:51:27;;;;;;;11.75;6.70;;;;;;;;;;5032429;28;20033;-70
2022/02/08 20:53:55;;;;;;;12.25;5.72;;;;;;;;;;5031809;28;20033;-68
2022/02/08 20:56:30;;;;;;;5.85;4.10;;;;;;;;;;5032590;28;20025;-69
2022/02/08 21:01:31;;;;;;;14.38;7.65;;;;;;;;;;5032989;28;20030;-66
2022/02/08 21:04:02;;;;;;;17.27;9.73;;;;;;;;;;5031252;28;20625;-67
2022/02/08 21:06:29;;;;;;;12.05;6.75;;;;;;;;;;5032280;28;20026;-69
2022/02/08 21:08:56;;;;;;;9.05;5.47;;;;;;;;;;5032080;28;20030;-70
2022/02/08 21:11:28;;;;;;;9.70;5.22;;;;;;;;;;5032121;28;20044;-69
2022/02/08 21:14:07;;;;;;;15.15;7.15;;;;;;;;;;5031384;28;20037;-68
2022/02/08 21:16:40;;;;;;;19.38;9.75;;;;;;;;;;5031735;28;20018;-67
2022/02/08 21:19:06;;;;;;;14.63;7.43;;;;;;;;;;5031850;28;20464;-69
2022/02/08 21:21:33;;;;;;;11.63;6.20;;;;;;;;;;5032989;28;20025;-70
2022/02/08 21:23:59;;;;;;;15.25;8.35;;;;;;;;;;5031992;28;20402;-71
2022/02/08 21:26:33;;;;;;;11.90;6.10;;;;;;;;;;5032963;28;20021;-74
2022/02/08 21:52:58;;;;;;;39.03;20.17;;;;;;;;;;5032221;28;20395;-73
2022/02/08 21:55:25;;;;;;;23.38;12.90;;;;;;;;;;5032833;28;20032;-71
2022/02/08 21:57:54;;;;;;;23.10;11.55;;;;;;;;;;5031275;28;20018;-71
2022/02/08 22:00:24;;;;;;;17.35;10.05;;;;;;;;;;5032452;28;20396;-71
2022/02/08 22:02:51;;;;;;;13.73;8.43;;;;;;;;;;5032910;28;20029;-74
2022/02/08 22:05:18;;;;;;;14.90;8.57;;;;;;;;;;5033761;28;20056;-72
2022/02/08 22:07:53;;;;;;;10.38;5.82;;;;;;;;;;5033647;28;20037;-73
2022/02/08 22:18:35;;;;;;;21.33;12.32;;;;;;;;;;5033989;28;20033;-75
2022/02/08 22:31:31;;;;;;;17.17;10.10;;;;;;;;;;5013779;28;20450;-74
2022/02/08 22:34:21;;;;;;;11.05;6.35;;;;;;;;;;5010794;28;20697;-73
2022/02/08 22:39:37;;;;;;;21.08;10.52;;;;;;;;;;5012386;28;20099;-72
2022/02/08 22:42:08;;;;;;;;;;;;;;;;;;5012144;28;20433;-72
2022/02/08 22:44:53;;;;;;;18.83;11.27;;;;;;;;;;5011892;28;20426;-70
2022/02/08 22:47:20;;;;;;;12.70;8.27;;;;;;;;;;5013012;28;20042;-69
2022/02/08 22:49:47;;;;;;;23.42;11.95;;;;;;;;;;5012785;28;20613;-72
2022/02/08 22:52:13;;;;;;;27.67;14.50;;;;;;;;;;5030798;28;20041;-73
2022/02/08 22:54:39;;;;;;;12.35;7.45;;;;;;;;;;5031054;28;20081;-71
2022/02/08 22:57:05;;;;;;;20.20;12.77;;;;;;;;;;5031723;28;20029;-71
2022/02/08 22:59:31;;;;;;;9.50;5.57;;;;;;;;;;5031529;28;20032;-69
2022/02/08 23:01:58;;;;;;;13.18;7.53;;;;;;;;;;5031488;28;20025;-71
2022/02/08 23:04:28;;;;;;;9.65;6.75;;;;;;;;;;5031050;28;20025;-72
2022/02/08 23:06:55;;;;;;;6.57;3.83;;;;;;;;;;5031490;28;20030;-71
2022/02/08 23:09:27;;;;;;;10.85;6.50;;;;;;;;;;5031411;28;20495;-71
2022/02/08 23:12:14;;;;;;;15.50;8.25;;;;;;;;;;5031577;28;20030;-71
2022/02/08 23:15:13;;;;;;;16.13;9.45;;;;;;;;;;5030980;28;20495;-67
2022/02/08 23:37:06;;;;;;;14.05;8.05;;;;;;;;;;5011772;28;20080;-73
2022/02/08 23:39:33;;;;;;;17.20;10.07;;;;;;;;;;5010249;28;20026;-73
2022/02/08 23:42:03;;;;;;;12.20;7.35;;;;;;;;;;5011800;28;20022;-72